createdAt,value
2023-04-22T00:00:54.937Z,55.87
2023-04-22T00:03:24.951Z,55.18
2023-04-22T00:05:51.775Z,55.58
2023-04-22T00:08:18.412Z,56.33
2023-04-22T00:10:45.055Z,56.30
2023-04-22T00:13:11.656Z,56.00
2023-04-22T00:15:38.562Z,56.19
2023-04-22T00:18:04.999Z,56.62
2023-04-22T00:20:32.870Z,56.50
2023-04-22T00:22:59.286Z,56.77
2023-04-22T00:25:26.018Z,56.42
2023-04-22T00:27:52.575Z,56.85
2023-04-22T00:30:19.111Z,56.67
2023-04-22T00:32:45.942Z,56.99
2023-04-22T00:35:12.734Z,56.72
2023-04-22T00:37:39.698Z,57.10
2023-04-22T00:40:07.021Z,57.49
2023-04-22T00:42:33.741Z,57.07
2023-04-22T00:45:01.362Z,57.12
2023-04-22T00:47:28.597Z,57.51
2023-04-22T00:49:55.089Z,57.68
2023-04-22T00:52:22.212Z,57.67
2023-04-22T00:54:49.611Z,58.00
2023-04-22T00:57:17.020Z,58.28
2023-04-22T00:59:44.583Z,58.45
2023-04-22T01:02:11.642Z,58.87
2023-04-22T01:04:38.735Z,58.48
2023-04-22T01:07:05.329Z,58.44
2023-04-22T01:09:31.844Z,58.99
2023-04-22T01:11:58.312Z,58.80
2023-04-22T01:14:25.249Z,58.83
2023-04-22T01:16:53.991Z,59.25
2023-04-22T01:19:20.737Z,59.38
2023-04-22T01:21:50.916Z,59.22
2023-04-22T01:24:17.628Z,59.62
2023-04-22T01:26:44.402Z,59.93
2023-04-22T01:29:10.866Z,59.75
2023-04-22T01:31:38.089Z,60.39
2023-04-22T01:34:05.372Z,60.23
2023-04-22T01:36:33.753Z,60.49
2023-04-22T01:39:00.707Z,60.59
2023-04-22T01:41:27.367Z,61.04
2023-04-22T01:43:54.603Z,61.19
2023-04-22T01:46:21.060Z,61.87
2023-04-22T01:48:51.355Z,61.53
2023-04-22T01:51:20.938Z,61.83
2023-04-22T01:53:48.704Z,62.35
2023-04-22T01:56:15.799Z,61.95
2023-04-22T01:58:42.727Z,62.24
2023-04-22T02:01:12.389Z,62.71
2023-04-22T02:03:39.302Z,62.86
2023-04-22T02:06:06.218Z,62.78
2023-04-22T02:08:32.693Z,63.40
2023-04-22T02:11:00.832Z,63.03
2023-04-22T02:13:35.429Z,62.95
2023-04-22T02:16:02.063Z,63.11
2023-04-22T02:18:28.447Z,63.46
2023-04-22T02:20:54.921Z,63.24
2023-04-22T02:23:21.738Z,62.91
2023-04-22T02:25:52.385Z,63.45
2023-04-22T02:28:19.436Z,63.61
2023-04-22T02:30:46.687Z,63.75
2023-04-22T02:33:14.377Z,63.66
2023-04-22T02:35:40.865Z,63.81
2023-04-22T02:38:07.303Z,64.01
2023-04-22T02:40:33.710Z,64.37
2023-04-22T02:43:00.364Z,64.69
2023-04-22T02:45:28.477Z,64.91
2023-04-22T02:47:55.509Z,64.94
2023-04-22T02:50:22.123Z,64.90
2023-04-22T02:52:48.573Z,65.83
2023-04-22T02:55:15.614Z,66.20
2023-04-22T02:57:42.060Z,66.44
2023-04-22T03:00:09.030Z,66.15
2023-04-22T03:02:36.195Z,66.09
2023-04-22T03:05:08.484Z,65.66
2023-04-22T03:07:35.516Z,66.39
2023-04-22T03:10:02.936Z,66.68
2023-04-22T03:12:29.376Z,66.75
2023-04-22T03:14:56.582Z,66.30
2023-04-22T03:17:27.974Z,67.29
2023-04-22T03:19:54.865Z,66.70
2023-04-22T03:22:21.899Z,66.56
2023-04-22T03:24:50.577Z,66.95
2023-04-22T03:27:17.195Z,67.69
2023-04-22T03:29:43.624Z,67.34
2023-04-22T03:32:10.945Z,67.85
2023-04-22T03:34:37.880Z,67.73
2023-04-22T03:37:06.998Z,68.26
2023-04-22T03:39:33.502Z,68.13
2023-04-22T03:42:00.057Z,67.90
2023-04-22T03:44:26.544Z,68.23
2023-04-22T03:46:54.963Z,68.05
2023-04-22T03:49:26.171Z,67.74
2023-04-22T03:51:54.887Z,68.51
2023-04-22T03:54:24.326Z,68.32
2023-04-22T03:56:52.410Z,68.11
2023-04-22T03:59:21.082Z,68.46
2023-04-22T04:01:50.832Z,68.99
2023-04-22T04:04:20.695Z,69.01
2023-04-22T04:06:52.462Z,69.40
2023-04-22T04:09:19.594Z,69.70
2023-04-22T04:11:46.565Z,70.20
2023-04-22T04:14:13.353Z,70.51
2023-04-22T04:16:46.306Z,70.70
2023-04-22T04:19:33.806Z,70.55
2023-04-22T04:22:02.161Z,71.22
2023-04-22T04:24:33.457Z,70.83
2023-04-22T04:27:05.633Z,71.32
2023-04-22T04:29:41.399Z,70.92
2023-04-22T04:32:14.144Z,71.54
2023-04-22T04:34:42.517Z,71.40
2023-04-22T04:37:09.626Z,71.24
2023-04-22T04:39:48.445Z,70.25
2023-04-22T04:42:16.360Z,70.52
2023-04-22T04:44:52.007Z,71.12
2023-04-22T04:47:20.306Z,70.51
2023-04-22T04:49:47.380Z,70.40
2023-04-22T04:52:14.281Z,70.18
2023-04-22T04:54:41.356Z,70.02
2023-04-22T04:57:10.052Z,69.86
2023-04-22T04:59:37.916Z,69.66
2023-04-22T05:02:05.750Z,68.84
2023-04-22T05:04:33.152Z,69.67
2023-04-22T05:07:00.034Z,69.29
2023-04-22T05:09:28.996Z,68.63
2023-04-22T05:11:55.816Z,68.73
2023-04-22T05:14:22.762Z,69.18
2023-04-22T05:16:49.300Z,68.94
2023-04-22T05:19:15.971Z,69.16
2023-04-22T05:21:43.270Z,68.69
2023-04-22T05:24:09.770Z,68.12
2023-04-22T05:26:36.520Z,68.14
2023-04-22T05:29:09.276Z,67.63
2023-04-22T05:31:35.869Z,67.44
2023-04-22T05:34:02.323Z,68.06
2023-04-22T05:36:31.416Z,68.24
2023-04-22T05:38:58.872Z,68.60
2023-04-22T05:41:26.160Z,68.51
2023-04-22T05:43:54.613Z,68.71
2023-04-22T05:46:21.153Z,68.59
2023-04-22T05:48:49.098Z,68.41
2023-04-22T05:51:34.007Z,68.71
2023-04-22T05:54:00.833Z,68.65
2023-04-22T05:56:27.627Z,68.84
2023-04-22T05:58:54.073Z,68.61
2023-04-22T06:01:24.849Z,68.45
2023-04-22T06:04:06.117Z,68.04
2023-04-22T06:06:33.501Z,67.76
2023-04-22T06:08:59.926Z,67.76
2023-04-22T06:11:26.469Z,67.50
2023-04-22T06:13:53.165Z,67.15
2023-04-22T06:16:19.871Z,67.43
2023-04-22T06:18:46.753Z,66.59
2023-04-22T06:21:14.009Z,66.26
2023-04-22T06:23:40.509Z,65.50
2023-04-22T06:26:06.970Z,64.33
2023-04-22T06:28:35.234Z,63.79
2023-04-22T06:31:05.948Z,62.66
2023-04-22T06:33:32.441Z,62.38
2023-04-22T06:35:59.109Z,61.37
2023-04-22T06:38:26.096Z,61.21
2023-04-22T06:41:22.451Z,60.22
2023-04-22T06:43:51.121Z,59.13
2023-04-22T06:46:17.677Z,58.33
2023-04-22T06:49:03.039Z,58.73
2023-04-22T06:52:03.583Z,58.85
2023-04-22T06:54:31.847Z,59.02
2023-04-22T06:56:58.345Z,57.97
2023-04-22T06:59:24.971Z,58.55
2023-04-22T07:01:51.505Z,58.26
2023-04-22T07:04:18.052Z,58.14
2023-04-22T07:06:44.634Z,58.22
2023-04-22T07:09:12.515Z,58.63
2023-04-22T07:11:39.048Z,57.99
2023-04-22T07:14:18.573Z,58.82
2023-04-22T07:16:45.502Z,58.72
2023-04-22T07:19:12.415Z,59.07
2023-04-22T07:21:38.825Z,58.88
2023-04-22T07:24:05.511Z,58.75
2023-04-22T07:26:34.242Z,59.05
2023-04-22T07:29:00.672Z,58.49
2023-04-22T07:31:27.235Z,57.20
2023-04-22T07:33:53.689Z,57.37
2023-04-22T07:36:20.725Z,57.51
2023-04-22T07:38:47.623Z,56.20
2023-04-22T07:41:14.095Z,56.58
2023-04-22T07:43:40.485Z,56.76
2023-04-22T07:46:07.246Z,56.09
2023-04-22T07:48:33.632Z,55.33
2023-04-22T07:51:00.030Z,54.78
2023-04-22T07:53:27.404Z,54.63
2023-04-22T07:55:54.980Z,54.71
2023-04-22T07:58:21.614Z,53.79
2023-04-22T08:00:48.023Z,53.96
2023-04-22T08:03:14.691Z,53.82
2023-04-22T08:05:41.264Z,53.74
2023-04-22T08:08:08.184Z,53.22
2023-04-22T08:10:34.632Z,54.16
2023-04-22T08:13:03.201Z,53.67
2023-04-22T08:15:30.062Z,53.89
2023-04-22T08:17:56.604Z,51.68
2023-04-22T08:20:23.692Z,51.91
2023-04-22T08:22:51.457Z,51.76
2023-04-22T08:25:17.940Z,50.42
2023-04-22T08:27:44.431Z,50.03
2023-04-22T08:30:11.051Z,50.93
2023-04-22T08:32:37.779Z,50.24
2023-04-22T08:35:05.448Z,50.78
2023-04-22T08:37:32.317Z,49.44
2023-04-22T08:39:58.736Z,49.61
2023-04-22T08:42:26.735Z,49.29
2023-04-22T08:44:54.896Z,48.75
2023-04-22T08:47:21.768Z,48.12
2023-04-22T08:49:51.384Z,48.21
2023-04-22T08:52:18.470Z,47.07
2023-04-22T08:54:44.861Z,46.25
2023-04-22T08:57:12.283Z,46.04
2023-04-22T08:59:39.101Z,45.56
2023-04-22T09:02:07.627Z,45.69
2023-04-22T09:04:34.455Z,46.20
2023-04-22T09:07:02.040Z,46.12
2023-04-22T09:09:30.695Z,46.85
2023-04-22T09:11:57.889Z,46.29
2023-04-22T09:14:25.383Z,46.82
2023-04-22T09:16:52.059Z,45.54
2023-04-22T09:19:19.224Z,45.52
2023-04-22T09:21:49.091Z,44.88
2023-04-22T09:24:16.541Z,44.96
2023-04-22T09:26:42.928Z,43.62
2023-04-22T09:29:14.249Z,43.55
2023-04-22T09:31:41.362Z,43.24
2023-04-22T09:34:08.613Z,42.58
2023-04-22T09:36:37.371Z,41.88
2023-04-22T09:39:09.285Z,41.44
2023-04-22T09:41:40.311Z,42.50
2023-04-22T09:44:15.519Z,42.01
2023-04-22T09:46:43.806Z,39.93
2023-04-22T09:49:10.999Z,40.10
2023-04-22T09:51:40.963Z,40.62
2023-04-22T09:54:08.861Z,40.59
2023-04-22T09:56:50.834Z,40.32
2023-04-22T09:59:22.258Z,39.04
2023-04-22T10:01:51.066Z,39.04
2023-04-22T10:04:21.282Z,39.77
2023-04-22T10:06:48.608Z,38.52
2023-04-22T10:09:25.133Z,38.99
2023-04-22T10:11:54.096Z,39.13
2023-04-22T10:14:25.314Z,40.23
2023-04-22T10:16:58.960Z,38.70
2023-04-22T10:19:26.838Z,38.61
2023-04-22T10:21:56.370Z,37.98
2023-04-22T10:24:26.721Z,37.36
2023-04-22T10:26:58.571Z,36.79
2023-04-22T10:29:42.632Z,35.78
2023-04-22T10:32:25.355Z,36.65
2023-04-22T10:35:08.445Z,36.15
2023-04-22T10:37:35.742Z,36.81
2023-04-22T10:40:16.516Z,37.07
2023-04-22T10:42:49.486Z,37.47
2023-04-22T10:45:16.226Z,36.43
2023-04-22T10:47:43.627Z,37.94
2023-04-22T10:50:24.007Z,36.66
2023-04-22T10:52:58.735Z,36.55
2023-04-22T10:55:44.631Z,36.29
2023-04-22T10:58:21.649Z,36.00
2023-04-22T11:00:54.193Z,35.59
2023-04-22T11:03:27.112Z,36.62
2023-04-22T11:06:16.841Z,36.38
2023-04-22T11:08:47.808Z,36.17
2023-04-22T11:11:18.700Z,35.99
2023-04-22T11:13:47.769Z,35.34
2023-04-22T11:16:14.260Z,35.93
2023-04-22T11:18:41.077Z,36.48
2023-04-22T11:21:08.692Z,36.61
2023-04-22T11:23:36.570Z,36.36
2023-04-22T11:26:05.647Z,35.39
2023-04-22T11:28:32.453Z,36.44
2023-04-22T11:31:11.735Z,36.15
2023-04-22T11:33:39.117Z,35.48
2023-04-22T11:36:09.806Z,34.54
2023-04-22T11:38:36.651Z,34.97
2023-04-22T11:41:04.887Z,34.80
2023-04-22T11:43:31.480Z,35.39
2023-04-22T11:45:58.191Z,34.73
2023-04-22T11:48:24.845Z,35.81
2023-04-22T11:51:08.767Z,36.65
2023-04-22T11:53:35.285Z,37.35
2023-04-22T11:56:03.880Z,36.94
2023-04-22T11:58:30.571Z,37.44
2023-04-22T12:00:59.139Z,37.65
2023-04-22T12:03:28.223Z,38.06
2023-04-22T12:06:00.316Z,36.11
2023-04-22T12:08:47.227Z,36.98
2023-04-22T12:11:13.684Z,35.47
2023-04-22T12:13:42.963Z,35.19
2023-04-22T12:16:15.704Z,35.55
2023-04-22T12:18:51.333Z,35.52
2023-04-22T12:21:24.167Z,35.06
2023-04-22T12:23:55.492Z,33.64
2023-04-22T12:26:26.531Z,33.65
2023-04-22T12:28:54.877Z,34.94
2023-04-22T12:31:21.680Z,34.42
2023-04-22T12:33:48.309Z,34.99
2023-04-22T12:36:15.360Z,34.56
2023-04-22T12:38:41.861Z,33.91
2023-04-22T12:41:08.500Z,33.13
2023-04-22T12:43:39.268Z,33.52
2023-04-22T12:46:07.515Z,33.63
2023-04-22T12:48:35.919Z,32.78
2023-04-22T12:51:03.065Z,32.85
2023-04-22T12:53:29.504Z,33.21
2023-04-22T12:55:56.429Z,33.50
2023-04-22T12:58:23.393Z,33.57
2023-04-22T13:00:49.932Z,34.67
2023-04-22T13:03:16.702Z,33.77
2023-04-22T13:05:45.337Z,34.01
2023-04-22T13:08:11.815Z,34.79
2023-04-22T13:10:38.315Z,35.40
2023-04-22T13:15:34.573Z,34.04
2023-04-22T13:18:02.402Z,32.25
2023-04-22T13:20:28.932Z,32.58
2023-04-22T13:22:55.971Z,33.97
2023-04-22T13:25:22.634Z,33.12
2023-04-22T13:27:49.072Z,33.76
2023-04-22T13:30:15.715Z,33.48
2023-04-22T13:32:42.173Z,33.08
2023-04-22T13:35:09.366Z,33.74
2023-04-22T13:37:36.753Z,34.45
2023-04-22T13:40:05.682Z,33.44
2023-04-22T13:42:32.179Z,33.30
2023-04-22T13:44:58.593Z,33.08
2023-04-22T13:47:25.097Z,32.86
2023-04-22T13:49:51.644Z,32.79
2023-04-22T13:52:18.035Z,32.21
2023-04-22T13:54:44.746Z,31.85
2023-04-22T13:57:11.156Z,31.41
2023-04-22T13:59:37.714Z,31.14
2023-04-22T14:02:04.291Z,30.52
2023-04-22T14:04:30.713Z,30.68
2023-04-22T14:06:57.112Z,31.41
2023-04-22T14:09:23.789Z,31.16
2023-04-22T14:11:50.289Z,31.16
2023-04-22T14:14:16.773Z,30.48
2023-04-22T14:16:43.382Z,30.97
2023-04-22T14:19:10.150Z,31.48
2023-04-22T14:21:36.615Z,31.40
2023-04-22T14:24:03.025Z,31.61
2023-04-22T14:26:29.641Z,31.94
2023-04-22T14:28:56.058Z,32.58
2023-04-22T14:31:24.598Z,33.26
2023-04-22T14:33:51.706Z,34.35
2023-04-22T14:36:18.572Z,34.55
2023-04-22T14:38:45.046Z,34.64
2023-04-22T14:41:12.380Z,34.68
2023-04-22T14:43:39.004Z,33.36
2023-04-22T14:46:05.565Z,34.17
2023-04-22T14:48:35.220Z,34.32
2023-04-22T14:51:02.673Z,34.69
2023-04-22T14:53:29.202Z,35.05
2023-04-22T14:55:56.453Z,34.77
2023-04-22T14:58:23.821Z,34.24
2023-04-22T15:00:50.464Z,33.73
2023-04-22T15:03:17.085Z,33.48
2023-04-22T15:05:44.077Z,33.28
2023-04-22T15:08:10.584Z,32.86
2023-04-22T15:10:37.024Z,32.73
2023-04-22T15:13:03.454Z,32.94
2023-04-22T15:15:29.865Z,33.00
2023-04-22T15:17:56.431Z,32.49
2023-04-22T15:20:22.947Z,32.37
2023-04-22T15:22:49.308Z,32.02
2023-04-22T15:25:18.082Z,30.31
2023-04-22T15:27:44.985Z,31.91
2023-04-22T15:30:11.718Z,31.49
2023-04-22T15:32:39.142Z,31.78
2023-04-22T15:35:07.557Z,31.35
2023-04-22T15:37:34.106Z,30.88
2023-04-22T15:40:00.551Z,30.98
2023-04-22T15:42:27.650Z,31.28
2023-04-22T15:44:54.137Z,31.49
2023-04-22T15:47:20.706Z,31.79
2023-04-22T15:49:49.460Z,31.81
2023-04-22T15:52:17.542Z,32.24
2023-04-22T15:54:44.728Z,32.80
2023-04-22T15:57:11.195Z,32.74
2023-04-22T15:59:37.832Z,32.04
2023-04-22T16:02:04.391Z,32.64
2023-04-22T16:04:31.259Z,33.84
2023-04-22T16:06:59.275Z,34.10
2023-04-22T16:09:26.123Z,33.50
2023-04-22T16:11:53.527Z,33.77
2023-04-22T16:14:19.936Z,33.17
2023-04-22T16:16:47.580Z,33.61
2023-04-22T16:19:14.350Z,33.20
2023-04-22T16:21:40.987Z,33.47
2023-04-22T16:24:07.549Z,34.04
2023-04-22T16:26:34.173Z,33.77
2023-04-22T16:29:00.732Z,34.00
2023-04-22T16:31:27.670Z,34.31
2023-04-22T16:33:54.101Z,34.46
2023-04-22T16:36:21.490Z,34.42
2023-04-22T16:38:48.091Z,34.97
2023-04-22T16:41:15.292Z,35.38
2023-04-22T16:43:41.763Z,36.11
2023-04-22T16:46:08.285Z,36.56
2023-04-22T16:48:34.796Z,36.24
2023-04-22T16:51:02.364Z,35.82
2023-04-22T16:53:29.764Z,35.80
2023-04-22T16:55:56.569Z,35.80
2023-04-22T16:58:23.058Z,36.00
2023-04-22T17:00:49.497Z,35.76
2023-04-22T17:03:16.124Z,36.28
2023-04-22T17:05:42.682Z,35.66
2023-04-22T17:08:09.273Z,35.97
2023-04-22T17:10:37.208Z,35.85
2023-04-22T17:13:03.675Z,36.28
2023-04-22T17:15:30.091Z,36.00
2023-04-22T17:17:56.561Z,35.55
2023-04-22T17:20:23.063Z,36.06
2023-04-22T17:22:49.766Z,36.61
2023-04-22T17:25:16.171Z,36.20
2023-04-22T17:27:42.583Z,36.69
2023-04-22T17:30:09.336Z,36.28
2023-04-22T17:32:35.813Z,36.34
2023-04-22T17:35:02.729Z,36.44
2023-04-22T17:37:29.183Z,36.93
2023-04-22T17:39:56.299Z,37.29
2023-04-22T17:44:50.566Z,37.65
2023-04-22T17:47:17.299Z,38.00
2023-04-22T17:49:43.941Z,38.17
2023-04-22T17:52:10.509Z,38.14
2023-04-22T17:54:36.959Z,38.42
2023-04-22T17:57:03.640Z,38.58
2023-04-22T17:59:30.093Z,38.82
2023-04-22T18:01:56.659Z,38.82
2023-04-22T18:04:23.334Z,38.81
2023-04-22T18:06:49.788Z,38.93
2023-04-22T18:09:16.885Z,38.88
2023-04-22T18:11:43.586Z,38.44
2023-04-22T18:14:10.569Z,40.10
2023-04-22T18:16:37.152Z,41.71
2023-04-22T18:19:06.714Z,43.45
2023-04-22T18:21:34.292Z,43.81
2023-04-22T18:24:02.553Z,45.30
2023-04-22T18:26:29.053Z,46.16
2023-04-22T18:28:55.700Z,46.72
2023-04-22T18:31:22.243Z,47.64
2023-04-22T18:33:48.867Z,48.13
2023-04-22T18:36:15.341Z,49.07
2023-04-22T18:38:41.972Z,49.74
2023-04-22T18:41:10.870Z,50.44
2023-04-22T18:43:37.463Z,50.97
2023-04-22T18:46:04.178Z,51.14
2023-04-22T18:48:30.756Z,51.31
2023-04-22T18:51:00.572Z,51.53
2023-04-22T18:53:27.692Z,51.94
2023-04-22T18:55:54.231Z,52.78
2023-04-22T18:58:22.998Z,53.45
2023-04-22T19:00:50.540Z,53.62
2023-04-22T19:03:17.173Z,53.78
2023-04-22T19:05:43.633Z,54.86
2023-04-22T19:08:10.459Z,55.19
2023-04-22T19:10:36.901Z,55.32
2023-04-22T19:13:04.134Z,55.49
2023-04-22T19:15:30.582Z,56.41
2023-04-22T19:17:57.089Z,56.66
2023-04-22T19:20:23.696Z,57.05
2023-04-22T19:22:50.171Z,57.12
2023-04-22T19:25:18.662Z,57.06
2023-04-22T19:27:45.143Z,57.42
2023-04-22T19:30:12.683Z,57.65
2023-04-22T19:32:39.155Z,57.63
2023-04-22T19:35:06.982Z,58.39
2023-04-22T19:37:33.989Z,58.18
2023-04-22T19:40:00.558Z,58.80
2023-04-22T19:42:27.904Z,59.28
2023-04-22T19:44:54.710Z,59.53
2023-04-22T19:47:21.554Z,60.12
2023-04-22T19:49:48.357Z,60.32
2023-04-22T19:52:15.600Z,60.21
2023-04-22T19:54:47.134Z,60.66
2023-04-22T19:57:14.957Z,60.28
2023-04-22T19:59:42.370Z,61.16
2023-04-22T20:02:09.721Z,60.92
2023-04-22T20:04:36.975Z,61.37
2023-04-22T20:07:04.029Z,61.32
2023-04-22T20:09:32.926Z,61.16
2023-04-22T20:11:59.849Z,61.08
2023-04-22T20:14:26.698Z,61.49
2023-04-22T20:16:53.373Z,61.84
2023-04-22T20:19:19.990Z,61.87
2023-04-22T20:21:48.780Z,62.08
2023-04-22T20:24:19.663Z,61.88
2023-04-22T20:26:48.058Z,62.69
2023-04-22T20:29:16.445Z,62.90
2023-04-22T20:31:43.290Z,63.39
2023-04-22T20:34:10.043Z,63.77
2023-04-22T20:36:39.717Z,64.53
2023-04-22T20:39:06.353Z,64.99
2023-04-22T20:41:37.068Z,64.93
2023-04-22T20:44:03.582Z,65.61
2023-04-22T20:46:30.042Z,65.66
2023-04-22T20:48:56.507Z,65.93
2023-04-22T20:51:23.094Z,66.17
2023-04-22T20:53:50.893Z,66.79
2023-04-22T20:56:17.332Z,66.71
2023-04-22T20:58:43.772Z,66.88
2023-04-22T21:01:10.562Z,67.10
2023-04-22T21:03:39.574Z,67.06
2023-04-22T21:06:06.286Z,67.24
2023-04-22T21:08:33.806Z,67.40
2023-04-22T21:11:00.496Z,67.67
2023-04-22T21:13:28.786Z,67.68
2023-04-22T21:16:02.936Z,68.13
2023-04-22T21:18:32.243Z,68.58
2023-04-22T21:21:02.498Z,69.19
2023-04-22T21:23:29.674Z,69.11
2023-04-22T21:25:59.229Z,70.14
2023-04-22T21:28:26.017Z,70.29
2023-04-22T21:30:53.027Z,70.26
2023-04-22T21:33:19.720Z,70.75
2023-04-22T21:35:46.824Z,70.31
2023-04-22T21:38:16.023Z,70.72
2023-04-22T21:40:42.417Z,71.92
2023-04-22T21:43:08.808Z,72.51
2023-04-22T21:45:35.778Z,72.74
2023-04-22T21:48:03.865Z,72.75
2023-04-22T21:50:31.280Z,73.79
2023-04-22T21:52:58.115Z,75.38
2023-04-22T21:55:24.636Z,75.57
2023-04-22T21:57:51.422Z,76.97
2023-04-22T22:00:18.700Z,78.16
2023-04-22T22:02:48.260Z,79.29
2023-04-22T22:05:15.896Z,81.36
2023-04-22T22:07:43.152Z,82.29
2023-04-22T22:10:19.029Z,84.14
2023-04-22T22:12:48.325Z,85.36
2023-04-22T22:15:17.432Z,86.82
2023-04-22T22:17:44.864Z,87.24
2023-04-22T22:20:20.177Z,88.49
2023-04-22T22:22:47.190Z,89.25
2023-04-22T22:25:15.509Z,89.71
2023-04-22T22:27:48.649Z,90.35
2023-04-22T22:30:16.488Z,90.25
2023-04-22T22:32:42.975Z,90.60
2023-04-22T22:35:10.212Z,90.36
2023-04-22T22:37:36.691Z,91.00
2023-04-22T22:40:04.031Z,91.58
2023-04-22T22:42:30.594Z,90.94
2023-04-22T22:44:57.601Z,91.13
2023-04-22T22:47:27.125Z,91.65
2023-04-22T22:49:53.578Z,91.34
2023-04-22T22:52:20.044Z,91.55
2023-04-22T22:54:48.572Z,91.76
2023-04-22T22:57:15.011Z,91.86
2023-04-22T22:59:41.476Z,91.92
2023-04-22T23:02:08.060Z,90.76
2023-04-22T23:04:36.497Z,91.14
2023-04-22T23:07:03.463Z,91.45
2023-04-22T23:09:29.885Z,91.43
2023-04-22T23:11:56.550Z,91.84
2023-04-22T23:14:24.555Z,91.65
2023-04-22T23:16:51.098Z,91.69
2023-04-22T23:19:18.154Z,92.41
2023-04-22T23:21:46.096Z,91.91
2023-04-22T23:24:14.840Z,92.23
2023-04-22T23:26:42.015Z,92.88
2023-04-22T23:29:09.219Z,92.60
2023-04-22T23:31:35.990Z,93.04
2023-04-22T23:34:05.010Z,93.30
2023-04-22T23:36:33.602Z,93.17
2023-04-22T23:39:00.696Z,94.09
2023-04-22T23:41:27.672Z,94.82
2023-04-22T23:43:54.173Z,94.45
2023-04-22T23:46:20.655Z,94.84
2023-04-22T23:48:47.246Z,94.39
2023-04-22T23:51:16.696Z,94.98
2023-04-22T23:53:44.122Z,94.52
2023-04-22T23:56:11.853Z,95.05
2023-04-22T23:58:38.776Z,94.58
